Time;durP1;ratioP1;P1;durP2;ratioP2;P2;SDS_P1;SDS_P2;PMS_P1;PMS_P2;Temp;Humidity;BMP_temperature;BMP_pressure;BME280_temperature;BME280_humidity;BME280_pressure;Samples;Min_cycle;Max_cycle;Signal;HPM_P1;HPM_P2
2022/09/04 00:00:37;;;;;;;;;;;15.30;99.90;;;;;;4913360;29;19966;-73
2022/09/04 00:03:06;;;;;;;;;;;15.30;99.90;;;;;;4922906;29;19973;-74
2022/09/04 00:05:37;;;;;;;;;;;15.30;99.90;;;;;;4920903;29;19933;-74
2022/09/04 00:08:06;;;;;;;;;;;15.30;99.90;;;;;;4923347;29;20347;-73
2022/09/04 00:10:31;;;;;;;;;;;15.30;99.90;;;;;;4924011;29;20523;-73
2022/09/04 00:13:03;;;;;;;;;;;15.40;99.90;;;;;;4923324;29;19919;-73
2022/09/04 00:15:33;;;;;;;;;;;15.50;99.90;;;;;;4906268;29;19921;-73
2022/09/04 00:18:06;;;;;;;;;;;15.60;99.90;;;;;;4906531;29;19914;-74
2022/09/04 00:20:39;;;;;;;;;;;15.70;99.90;;;;;;4920302;29;19918;-73
2022/09/04 00:23:20;;;;;;;;;;;15.70;99.90;;;;;;4923168;29;19931;-74
2022/09/04 00:25:56;;;;;;;;;;;15.70;99.90;;;;;;4923517;29;20390;-74
2022/09/04 00:28:27;;;;;;;;;;;15.70;99.90;;;;;;4923059;29;20036;-74
2022/09/04 00:31:03;;;;;;;;;;;15.70;99.90;;;;;;4923405;29;19926;-74
2022/09/04 00:33:37;;;;;;;;;;;15.70;99.90;;;;;;4921474;29;20294;-74
2022/09/04 00:36:03;;;;;;;;;;;15.70;99.90;;;;;;4922304;29;19934;-74
2022/09/04 00:38:31;;;;;;;;;;;15.70;99.90;;;;;;4924000;29;20005;-73
2022/09/04 00:41:07;;;;;;;;;;;15.70;99.90;;;;;;4923491;29;19919;-74
2022/09/04 00:43:33;;;;;;;;;;;15.70;99.90;;;;;;4920705;29;20436;-73
2022/09/04 00:45:59;;;;;;;;;;;15.70;99.90;;;;;;4923744;29;19923;-74
2022/09/04 00:48:26;;;;;;;;;;;15.70;99.90;;;;;;4921470;29;19922;-73
2022/09/04 00:50:55;;;;;;;;;;;15.70;99.90;;;;;;4920807;29;19919;-73
2022/09/04 00:53:39;;;;;;;;;;;15.70;99.90;;;;;;4924362;29;19966;-73
2022/09/04 00:56:24;;;;;;;;;;;15.70;99.90;;;;;;4915103;29;19959;-74
2022/09/04 00:59:03;;;;;;;;;;;15.70;99.90;;;;;;4925728;29;19919;-74
2022/09/04 01:01:28;;;;;;;;;;;15.70;99.90;;;;;;4912401;29;19918;-74
2022/09/04 01:03:54;;;;;;;;;;;15.70;99.90;;;;;;4910611;29;19930;-74
2022/09/04 01:06:35;;;;;;;;;;;15.70;99.90;;;;;;4928462;29;20106;-74
2022/09/04 01:09:18;;;;;;;;;;;15.70;99.90;;;;;;4927710;29;19919;-73
2022/09/04 01:11:59;;;;;;;;;;;15.80;99.90;;;;;;4923780;29;20149;-73
2022/09/04 01:14:33;;;;;;;;;;;15.90;99.90;;;;;;4920946;29;20150;-73
2022/09/04 01:17:08;;;;;;;;;;;16.00;99.90;;;;;;4923718;29;19919;-73
2022/09/04 01:19:51;;;;;;;;;;;16.10;99.90;;;;;;4924776;29;19989;-73
2022/09/04 01:22:16;;;;;;;;;;;16.20;99.90;;;;;;4923839;29;19954;-73
2022/09/04 01:24:41;;;;;;;;;;;16.10;99.90;;;;;;4917630;29;19981;-73
2022/09/04 01:27:27;;;;;;;;;;;16.10;99.90;;;;;;4926441;29;20454;-73
2022/09/04 01:29:53;;;;;;;;;;;16.00;99.90;;;;;;4924534;29;20039;-73
2022/09/04 01:32:27;;;;;;;;;;;16.00;99.90;;;;;;4914042;29;19990;-73
2022/09/04 01:35:01;;;;;;;;;;;16.00;99.90;;;;;;4911873;29;19945;-73
2022/09/04 01:37:40;;;;;;;;;;;16.00;99.90;;;;;;4927711;29;20025;-73
2022/09/04 01:40:07;;;;;;;;;;;16.10;99.90;;;;;;4925658;29;19931;-73
2022/09/04 01:42:54;;;;;;;;;;;16.10;99.90;;;;;;4913689;29;19934;-73
2022/09/04 01:45:32;;;;;;;;;;;16.00;99.90;;;;;;4928158;29;20442;-73
2022/09/04 01:48:01;;;;;;;;;;;16.00;99.90;;;;;;4925320;29;20025;-73
2022/09/04 01:50:30;;;;;;;;;;;16.00;99.90;;;;;;4926645;29;19919;-73
2022/09/04 01:53:09;;;;;;;;;;;15.90;99.90;;;;;;4930863;29;19930;-73
2022/09/04 01:55:40;;;;;;;;;;;16.00;99.90;;;;;;4928552;29;19950;-74
2022/09/04 01:58:18;;;;;;;;;;;16.00;99.90;;;;;;4931661;29;19919;-73
2022/09/04 02:01:15;;;;;;;;;;;16.00;99.90;;;;;;4912526;29;19931;-73
2022/09/04 02:03:45;;;;;;;;;;;16.00;99.90;;;;;;4894472;29;19939;-74
2022/09/04 02:06:20;;;;;;;;;;;15.90;99.90;;;;;;4930566;29;19978;-73
2022/09/04 02:08:59;;;;;;;;;;;15.90;99.90;;;;;;4928663;29;19914;-74
2022/09/04 02:11:27;;;;;;;;;;;15.90;99.90;;;;;;4912543;29;20346;-74
2022/09/04 02:14:03;;;;;;;;;;;16.00;99.90;;;;;;4929465;29;19919;-74
2022/09/04 02:16:55;;;;;;;;;;;16.00;99.90;;;;;;4930992;29;19918;-74
2022/09/04 02:19:35;;;;;;;;;;;16.10;99.90;;;;;;4916646;29;19929;-74
2022/09/04 02:22:05;;;;;;;;;;;16.10;99.90;;;;;;4912413;29;20712;-74
2022/09/04 02:24:49;;;;;;;;;;;16.10;99.90;;;;;;4925208;29;19923;-73
2022/09/04 02:27:33;;;;;;;;;;;16.10;99.90;;;;;;4911329;29;19926;-73
2022/09/04 02:30:09;;;;;;;;;;;16.00;99.90;;;;;;4928749;29;19921;-74
2022/09/04 02:32:41;;;;;;;;;;;16.10;99.90;;;;;;4927546;29;20319;-73
2022/09/04 02:35:14;;;;;;;;;;;16.00;99.90;;;;;;4928182;29;19919;-73
2022/09/04 02:37:58;;;;;;;;;;;16.00;99.90;;;;;;4928105;29;19930;-73
2022/09/04 02:40:23;;;;;;;;;;;16.10;99.90;;;;;;4931010;29;19971;-73
2022/09/04 02:42:52;;;;;;;;;;;16.10;99.90;;;;;;4911683;29;19937;-73
2022/09/04 02:45:35;;;;;;;;;;;16.10;99.90;;;;;;4928211;29;19970;-73
2022/09/04 02:48:33;;;;;;;;;;;16.10;99.90;;;;;;4928686;29;20009;-73
2022/09/04 02:50:59;;;;;;;;;;;16.10;99.90;;;;;;4913318;29;19999;-74
2022/09/04 02:53:36;;;;;;;;;;;16.00;99.90;;;;;;4925848;29;19918;-73
2022/09/04 02:56:08;;;;;;;;;;;16.00;99.90;;;;;;4925221;29;19923;-74
2022/09/04 02:58:45;;;;;;;;;;;16.10;99.90;;;;;;4925483;29;19919;-74
2022/09/04 03:01:11;;;;;;;;;;;16.10;99.90;;;;;;4918383;29;19960;-73
2022/09/04 03:03:37;;;;;;;;;;;16.10;99.90;;;;;;4925247;29;20460;-73
2022/09/04 03:06:08;;;;;;;;;;;16.10;99.90;;;;;;4926414;29;20009;-74
2022/09/04 03:08:36;;;;;;;;;;;16.10;99.90;;;;;;4926250;29;19921;-73
2022/09/04 03:11:02;;;;;;;;;;;16.10;99.90;;;;;;4924280;29;19990;-74
2022/09/04 03:13:30;;;;;;;;;;;16.10;99.90;;;;;;4921516;29;19918;-73
2022/09/04 03:16:01;;;;;;;;;;;16.20;99.90;;;;;;4925227;29;19971;-73
2022/09/04 03:18:26;;;;;;;;;;;16.20;99.90;;;;;;4907231;29;19962;-73
2022/09/04 03:21:05;;;;;;;;;;;16.10;99.90;;;;;;4925333;29;20005;-74
2022/09/04 03:23:42;;;;;;;;;;;16.20;99.90;;;;;;4924137;29;19931;-74
2022/09/04 03:26:13;;;;;;;;;;;16.20;99.90;;;;;;4923809;29;19994;-74
2022/09/04 03:28:58;;;;;;;;;;;16.20;99.90;;;;;;4925460;29;19918;-74
2022/09/04 03:31:39;;;;;;;;;;;16.20;99.90;;;;;;4925624;29;20405;-73
2022/09/04 03:34:15;;;;;;;;;;;16.20;99.90;;;;;;4923401;29;20382;-73
2022/09/04 03:36:47;;;;;;;;;;;16.20;99.90;;;;;;4925670;29;19934;-74
2022/09/04 03:39:32;;;;;;;;;;;16.20;99.90;;;;;;4915362;29;19994;-73
2022/09/04 03:42:14;;;;;;;;;;;16.10;99.90;;;;;;4923767;29;19934;-74
2022/09/04 03:45:05;;;;;;;;;;;16.10;99.90;;;;;;4925366;29;20083;-74
2022/09/04 03:47:45;;;;;;;;;;;16.10;99.90;;;;;;4911209;29;20323;-74
2022/09/04 03:50:26;;;;;;;;;;;16.10;99.90;;;;;;4916136;29;19919;-74
2022/09/04 03:52:58;;;;;;;;;;;16.10;99.90;;;;;;4889383;29;20017;-74
2022/09/04 03:55:43;;;;;;;;;;;16.10;99.90;;;;;;4923849;29;19950;-74
2022/09/04 03:58:24;;;;;;;;;;;16.10;99.90;;;;;;4875779;29;19973;-74
2022/09/04 04:01:05;;;;;;;;;;;16.10;99.90;;;;;;4924481;29;19954;-73
2022/09/04 04:04:03;;;;;;;;;;;16.00;99.90;;;;;;4905380;29;20025;-74
2022/09/04 04:06:40;;;;;;;;;;;16.00;99.90;;;;;;4870697;29;19915;-73
2022/09/04 04:09:28;;;;;;;;;;;16.00;99.90;;;;;;4925684;29;19918;-74
2022/09/04 04:12:12;;;;;;;;;;;16.00;99.90;;;;;;4924844;29;19921;-73
2022/09/04 04:14:37;;;;;;;;;;;15.90;99.90;;;;;;4923769;29;19918;-74
2022/09/04 04:17:09;;;;;;;;;;;15.90;99.90;;;;;;4919382;29;19926;-74
2022/09/04 04:19:41;;;;;;;;;;;15.90;99.90;;;;;;4923898;29;19925;-74
2022/09/04 04:22:09;;;;;;;;;;;15.90;99.90;;;;;;4921782;29;20327;-74
2022/09/04 04:24:53;;;;;;;;;;;15.90;99.90;;;;;;4922156;29;20434;-74
2022/09/04 04:27:34;;;;;;;;;;;16.00;99.90;;;;;;4915259;29;20026;-73
2022/09/04 04:30:04;;;;;;;;;;;16.00;99.90;;;;;;4922847;29;20414;-74
2022/09/04 04:32:30;;;;;;;;;;;16.00;99.90;;;;;;4925842;29;20037;-74
2022/09/04 04:35:15;;;;;;;;;;;16.00;99.90;;;;;;4920944;29;20405;-73
2022/09/04 04:37:45;;;;;;;;;;;16.00;99.90;;;;;;4925374;29;19931;-74
2022/09/04 04:40:21;;;;;;;;;;;16.10;99.90;;;;;;4910679;29;19919;-74
2022/09/04 04:42:53;;;;;;;;;;;16.10;99.90;;;;;;4916697;29;19931;-74
2022/09/04 04:45:52;;;;;;;;;;;16.10;99.90;;;;;;4909239;29;19914;-74
2022/09/04 04:48:17;;;;;;;;;;;16.10;99.90;;;;;;4905330;29;20556;-74
2022/09/04 04:50:44;;;;;;;;;;;16.10;99.90;;;;;;4925056;29;19960;-74
2022/09/04 04:53:45;;;;;;;;;;;16.10;99.90;;;;;;4926919;29;19918;-73
2022/09/04 04:56:18;;;;;;;;;;;16.10;99.90;;;;;;4848318;29;19923;-74
2022/09/04 04:58:43;;;;;;;;;;;16.10;99.90;;;;;;4912446;29;20311;-74
2022/09/04 05:01:18;;;;;;;;;;;16.10;99.90;;;;;;4925678;29;19921;-73
2022/09/04 05:03:53;;;;;;;;;;;16.00;99.90;;;;;;4924542;29;19967;-74
2022/09/04 05:06:38;;;;;;;;;;;16.00;99.90;;;;;;4924567;29;20003;-73
2022/09/04 05:09:36;;;;;;;;;;;16.00;99.90;;;;;;4925411;29;20387;-74
2022/09/04 05:12:02;;;;;;;;;;;16.00;99.90;;;;;;4880859;29;19915;-74
2022/09/04 05:14:27;;;;;;;;;;;16.00;99.90;;;;;;4909635;29;19926;-74
2022/09/04 05:17:01;;;;;;;;;;;16.00;99.90;;;;;;4927708;29;19919;-74
2022/09/04 05:19:30;;;;;;;;;;;16.00;99.90;;;;;;4926334;29;20604;-74
2022/09/04 05:22:04;;;;;;;;;;;15.90;99.90;;;;;;4925029;29;19922;-73
2022/09/04 05:24:38;;;;;;;;;;;15.90;99.90;;;;;;4925742;29;19955;-75
2022/09/04 05:27:13;;;;;;;;;;;15.90;99.90;;;;;;4925287;29;19966;-74
2022/09/04 05:29:50;;;;;;;;;;;15.90;99.90;;;;;;4926726;29;19914;-73
2022/09/04 05:32:30;;;;;;;;;;;15.90;99.90;;;;;;4924912;29;19922;-75
2022/09/04 05:35:02;;;;;;;;;;;15.90;99.90;;;;;;4924029;29;19915;-74
2022/09/04 05:37:41;;;;;;;;;;;15.90;99.90;;;;;;4925102;29;20002;-74
2022/09/04 05:40:18;;;;;;;;;;;15.90;99.90;;;;;;4925009;29;19919;-74
2022/09/04 05:42:47;;;;;;;;;;;15.90;99.90;;;;;;4923834;29;19919;-74
2022/09/04 05:45:15;;;;;;;;;;;16.00;99.90;;;;;;4924072;29;19919;-75
2022/09/04 05:47:50;;;;;;;;;;;16.00;99.90;;;;;;4926273;29;19919;-74
2022/09/04 05:50:34;;;;;;;;;;;16.00;99.90;;;;;;4925919;29;19965;-74
2022/09/04 05:53:00;;;;;;;;;;;16.10;99.90;;;;;;4926309;29;19926;-74
2022/09/04 05:55:30;;;;;;;;;;;16.10;99.90;;;;;;4926765;29;19981;-74
2022/09/04 05:57:59;;;;;;;;;;;16.10;99.90;;;;;;4925731;29;19973;-75
2022/09/04 06:00:25;;;;;;;;;;;16.10;99.90;;;;;;4925171;29;19919;-74
2022/09/04 06:02:59;;;;;;;;;;;16.20;99.90;;;;;;4924037;29;19954;-75
2022/09/04 06:05:34;;;;;;;;;;;16.30;99.90;;;;;;4923788;29;20337;-74
2022/09/04 06:08:18;;;;;;;;;;;16.40;99.90;;;;;;4906949;29;19974;-74
2022/09/04 06:11:02;;;;;;;;;;;16.50;99.90;;;;;;4921265;29;20236;-74
2022/09/04 06:13:36;;;;;;;;;;;16.60;99.90;;;;;;4945682;29;19939;-75
2022/09/04 06:16:20;;;;;;;;;;;16.70;99.90;;;;;;4922428;29;19919;-74
2022/09/04 06:19:12;;;;;;;;;;;16.90;99.90;;;;;;4923208;29;19942;-74
2022/09/04 06:21:53;;;;;;;;;;;17.00;99.90;;;;;;4898449;29;19919;-74
2022/09/04 06:24:27;;;;;;;;;;;17.10;99.90;;;;;;4916191;29;19934;-74
2022/09/04 06:26:53;;;;;;;;;;;17.10;99.90;;;;;;4928411;29;19942;-74
2022/09/04 06:29:37;;;;;;;;;;;17.20;99.90;;;;;;4927079;29;20287;-74
2022/09/04 06:32:11;;;;;;;;;;;17.30;99.90;;;;;;4928634;29;19922;-74
2022/09/04 06:34:55;;;;;;;;;;;17.50;99.90;;;;;;4929630;29;19977;-74
2022/09/04 06:37:44;;;;;;;;;;;17.70;99.90;;;;;;4929448;29;19984;-75
2022/09/04 06:40:27;;;;;;;;;;;17.80;99.90;;;;;;4885084;29;19915;-73
2022/09/04 06:43:05;;;;;;;;;;;18.00;99.90;;;;;;4927180;29;19946;-75
2022/09/04 06:45:34;;;;;;;;;;;18.10;99.90;;;;;;4929032;29;20418;-73
2022/09/04 06:47:59;;;;;;;;;;;18.30;99.90;;;;;;4925922;29;19918;-74
2022/09/04 06:50:31;;;;;;;;;;;18.50;99.90;;;;;;4928377;29;19925;-74
2022/09/04 06:53:06;;;;;;;;;;;18.60;99.90;;;;;;4919668;29;19919;-74
2022/09/04 06:55:34;;;;;;;;;;;18.70;99.90;;;;;;4928575;29;19914;-74
2022/09/04 06:58:08;;;;;;;;;;;18.80;99.90;;;;;;4927660;29;20287;-74
2022/09/04 07:00:41;;;;;;;;;;;18.80;99.90;;;;;;4926279;29;19923;-71
2022/09/04 07:03:26;;;;;;;;;;;18.90;99.90;;;;;;4922176;29;19922;-71
2022/09/04 07:05:55;;;;;;;;;;;19.10;99.90;;;;;;4919940;29;19919;-70
2022/09/04 07:11:17;;;;;;;;;;;19.50;99.90;;;;;;5272142;23;20437;-71
2022/09/04 07:14:15;;;;;;;;;;;19.80;99.90;;;;;;4916143;29;19929;-71
2022/09/04 07:17:04;;;;;;;;;;;20.10;99.90;;;;;;4912416;29;20302;-71
2022/09/04 07:19:38;;;;;;;;;;;20.10;99.90;;;;;;4921780;29;19918;-71
2022/09/04 07:22:22;;;;;;;;;;;20.10;99.90;;;;;;4920642;29;20180;-71
2022/09/04 07:24:48;;;;;;;;;;;20.10;99.90;;;;;;4920000;29;20124;-71
2022/09/04 07:27:18;;;;;;;;;;;20.30;99.90;;;;;;4919979;29;20347;-71
2022/09/04 07:29:49;;;;;;;;;;;20.30;99.90;;;;;;4921998;29;20330;-71
2022/09/04 07:32:20;;;;;;;;;;;20.30;99.90;;;;;;4923302;29;19923;-71
2022/09/04 07:34:45;;;;;;;;;;;20.30;99.90;;;;;;4921285;29;19918;-71
2022/09/04 07:37:22;;;;;;;;;;;20.40;99.90;;;;;;4922584;29;20429;-71
2022/09/04 07:39:52;;;;;;;;;;;20.50;99.90;;;;;;4921696;29;19923;-71
2022/09/04 07:42:50;;;;;;;;;;;20.70;99.90;;;;;;4923954;29;19919;-71
2022/09/04 07:45:32;;;;;;;;;;;20.90;99.90;;;;;;4867056;29;19934;-71
2022/09/04 07:48:16;;;;;;;;;;;21.10;99.90;;;;;;4926399;23;20022;-70
2022/09/04 07:51:03;;;;;;;;;;;21.20;99.90;;;;;;4913014;29;19923;-70
2022/09/04 07:53:38;;;;;;;;;;;21.40;99.90;;;;;;4899110;29;19918;-70
2022/09/04 07:56:21;;;;;;;;;;;21.50;99.90;;;;;;4905691;29;19914;-70
2022/09/04 07:58:55;;;;;;;;;;;21.70;99.90;;;;;;4908979;29;19918;-70
2022/09/04 08:01:22;;;;;;;;;;;21.80;99.90;;;;;;4919071;29;19919;-70
2022/09/04 08:04:05;;;;;;;;;;;22.00;99.90;;;;;;4921112;29;19930;-70
2022/09/04 08:06:31;;;;;;;;;;;22.30;99.90;;;;;;4925475;29;20727;-70
2022/09/04 08:09:17;;;;;;;;;;;22.40;99.90;;;;;;4918197;29;20417;-70
2022/09/04 08:11:51;;;;;;;;;;;22.40;99.90;;;;;;4907371;29;20322;-70
2022/09/04 08:14:36;;;;;;;;;;;22.30;99.90;;;;;;4921313;29;19970;-70
2022/09/04 08:17:19;;;;;;;;;;;22.00;99.90;;;;;;4923554;29;19927;-69
2022/09/04 08:19:51;;;;;;;;;;;21.90;99.90;;;;;;4920346;29;19918;-70
2022/09/04 08:22:25;;;;;;;;;;;21.90;99.90;;;;;;4921492;29;20391;-72
2022/09/04 08:24:57;;;;;;;;;;;21.80;99.90;;;;;;4928177;29;19914;-70
2022/09/04 08:27:23;;;;;;;;;;;22.00;99.90;;;;;;4917336;29;19919;-70
2022/09/04 08:30:07;;;;;;;;;;;22.10;99.90;;;;;;4922156;29;19915;-69
2022/09/04 08:32:51;;;;;;;;;;;22.20;99.90;;;;;;4920680;29;20017;-70
2022/09/04 08:35:17;;;;;;;;;;;22.30;99.90;;;;;;4891000;29;19926;-70
2022/09/04 08:37:51;;;;;;;;;;;22.70;99.90;;;;;;4915337;29;19915;-70
2022/09/04 08:40:37;;;;;;;;;;;23.10;99.90;;;;;;4910991;29;20351;-70
2022/09/04 08:43:12;;;;;;;;;;;23.20;99.90;;;;;;4909341;29;19931;-70
2022/09/04 08:45:43;;;;;;;;;;;23.30;99.90;;;;;;4889240;29;19927;-70
2022/09/04 08:48:09;;;;;;;;;;;23.00;99.90;;;;;;4912500;29;19927;-70
2022/09/04 08:50:53;;;;;;;;;;;23.10;99.90;;;;;;4908635;29;19918;-69
2022/09/04 08:53:22;;;;;;;;;;;23.40;99.90;;;;;;4920634;29;19925;-70
2022/09/04 08:56:06;;;;;;;;;;;23.30;99.90;;;;;;4898219;29;19965;-70
2022/09/04 08:58:38;;;;;;;;;;;23.70;99.90;;;;;;4920687;29;19918;-70
2022/09/04 09:01:10;;;;;;;;;;;24.10;99.90;;;;;;4880889;29;20007;-71
2022/09/04 09:03:47;;;;;;;;;;;24.50;99.90;;;;;;4916999;29;20003;-71
2022/09/04 09:06:13;;;;;;;;;;;24.40;99.90;;;;;;4915521;29;19922;-71
2022/09/04 09:08:57;;;;;;;;;;;24.50;99.90;;;;;;4903615;29;20025;-71
2022/09/04 09:11:42;;;;;;;;;;;24.40;99.90;;;;;;4920658;29;20042;-71
2022/09/04 09:14:13;;;;;;;;;;;24.60;99.90;;;;;;4917241;29;19923;-70
2022/09/04 09:16:51;;;;;;;;;;;24.40;99.90;;;;;;4913431;29;19954;-70
2022/09/04 09:19:21;;;;;;;;;;;23.80;99.90;;;;;;4888464;29;19919;-70
2022/09/04 09:21:53;;;;;;;;;;;23.60;99.90;;;;;;4904431;29;19923;-70
2022/09/04 09:24:51;;;;;;;;;;;23.20;99.90;;;;;;4905236;29;20445;-69
2022/09/04 09:27:35;;;;;;;;;;;23.00;99.90;;;;;;4875696;29;19969;-70
2022/09/04 09:30:01;;;;;;;;;;;22.60;99.90;;;;;;4904203;29;19961;-70
2022/09/04 09:32:27;;;;;;;;;;;22.60;99.90;;;;;;4907989;29;20378;-69
2022/09/04 09:35:11;;;;;;;;;;;22.50;99.90;;;;;;4918639;29;20275;-70
2022/09/04 09:37:55;;;;;;;;;;;22.40;99.90;;;;;;4913854;29;19919;-70
2022/09/04 09:40:26;;;;;;;;;;;22.50;99.90;;;;;;4915121;29;20047;-70
2022/09/04 09:43:11;;;;;;;;;;;22.50;99.90;;;;;;4920614;29;19923;-70
2022/09/04 09:45:43;;;;;;;;;;;22.60;99.90;;;;;;4920451;29;20513;-70
2022/09/04 09:48:27;;;;;;;;;;;22.80;99.90;;;;;;4920739;29;20006;-70
2022/09/04 09:50:58;;;;;;;;;;;22.80;99.90;;;;;;4918348;29;19925;-71
2022/09/04 09:53:43;;;;;;;;;;;22.90;99.90;;;;;;4911323;29;19939;-70
2022/09/04 09:56:20;;;;;;;;;;;22.90;99.90;;;;;;4903857;29;19923;-70
2022/09/04 09:59:04;;;;;;;;;;;23.00;99.90;;;;;;4903925;29;19927;-70
2022/09/04 10:01:43;;;;;;;;;;;23.30;99.90;;;;;;4899004;29;19931;-69
2022/09/04 10:04:14;;;;;;;;;;;23.80;99.90;;;;;;4882079;29;20035;-70
2022/09/04 10:06:49;;;;;;;;;;;24.10;99.90;;;;;;4909779;29;19918;-70
2022/09/04 10:09:36;;;;;;;;;;;24.30;99.90;;;;;;4908951;29;19942;-70
2022/09/04 10:12:01;;;;;;;;;;;24.60;99.90;;;;;;4891752;29;20132;-72
2022/09/04 10:14:45;;;;;;;;;;;24.70;99.90;;;;;;4909919;29;19919;-70
2022/09/04 10:17:29;;;;;;;;;;;25.00;99.90;;;;;;4901394;29;19926;-71
2022/09/04 10:20:14;;;;;;;;;;;25.30;99.90;;;;;;4902404;29;19978;-70
2022/09/04 10:22:58;;;;;;;;;;;25.30;99.90;;;;;;4905739;29;20464;-70
2022/09/04 10:25:34;;;;;;;;;;;25.10;99.90;;;;;;4910562;29;20170;-70
2022/09/04 10:28:28;;;;;;;;;;;25.00;99.90;;;;;;4905656;29;19919;-71
2022/09/04 10:30:58;;;;;;;;;;;24.90;99.90;;;;;;4888582;29;19922;-71
2022/09/04 10:33:30;;;;;;;;;;;24.70;99.90;;;;;;4901014;29;20482;-71
2022/09/04 10:36:31;;;;;;;;;;;24.70;99.90;;;;;;4901241;29;19936;-70
2022/09/04 10:42:04;;;;;;;;;;;24.60;99.90;;;;;;4901059;29;20350;-70
2022/09/04 10:44:35;;;;;;;;;;;24.60;99.90;;;;;;4909842;29;19938;-70
2022/09/04 10:47:01;;;;;;;;;;;24.30;99.90;;;;;;4903520;29;19934;-70
2022/09/04 10:49:45;;;;;;;;;;;24.00;99.90;;;;;;4907183;29;19961;-70
2022/09/04 10:52:29;;;;;;;;;;;23.80;99.90;;;;;;4915220;29;19926;-70
2022/09/04 10:55:13;;;;;;;;;;;23.50;99.90;;;;;;4899754;29;20582;-70
2022/09/04 10:57:39;;;;;;;;;;;23.50;99.90;;;;;;4901286;29;19930;-70
2022/09/04 11:00:06;;;;;;;;;;;23.40;99.90;;;;;;4905751;29;19927;-70
2022/09/04 11:02:50;;;;;;;;;;;23.50;99.90;;;;;;4905949;29;19958;-70
2022/09/04 11:05:23;;;;;;;;;;;23.50;99.90;;;;;;4905646;29;20038;-70
2022/09/04 11:08:12;;;;;;;;;;;23.50;99.90;;;;;;4900261;29;19926;-70
2022/09/04 11:10:50;;;;;;;;;;;23.80;99.90;;;;;;4910743;29;20013;-70
2022/09/04 11:13:21;;;;;;;;;;;23.90;99.90;;;;;;4909848;29;20478;-70
2022/09/04 11:15:53;;;;;;;;;;;24.00;99.90;;;;;;4909844;29;20370;-70
2022/09/04 11:18:24;;;;;;;;;;;24.10;99.90;;;;;;4910571;29;19937;-70
2022/09/04 11:21:14;;;;;;;;;;;24.00;99.90;;;;;;4910177;29;19919;-70
2022/09/04 11:23:58;;;;;;;;;;;24.00;99.90;;;;;;4911561;29;20045;-71
2022/09/04 11:26:25;;;;;;;;;;;24.20;99.90;;;;;;4910990;29;19919;-71
2022/09/04 11:28:56;;;;;;;;;;;24.10;99.90;;;;;;4908493;29;20046;-70
2022/09/04 11:31:32;;;;;;;;;;;24.30;99.90;;;;;;4918480;29;19953;-70
2022/09/04 11:34:18;;;;;;;;;;;24.50;99.90;;;;;;4912390;29;19934;-70
2022/09/04 11:36:59;;;;;;;;;;;24.40;99.90;;;;;;4915098;29;20235;-70
2022/09/04 11:39:25;;;;;;;;;;;24.20;99.90;;;;;;4919468;29;19918;-70
2022/09/04 11:41:50;;;;;;;;;;;24.30;99.90;;;;;;4892098;29;19994;-70
2022/09/04 11:44:19;;;;;;;;;;;24.30;99.90;;;;;;4908277;29;19930;-70
2022/09/04 11:46:48;;;;;;;;;;;24.10;99.90;;;;;;4909153;29;20078;-70
2022/09/04 11:49:39;;;;;;;;;;;24.00;99.90;;;;;;4909007;29;20033;-69
2022/09/04 11:52:15;;;;;;;;;;;24.20;99.90;;;;;;4885231;29;20789;-70
2022/09/04 11:54:46;;;;;;;;;;;24.60;99.90;;;;;;4912423;29;20995;-70
2022/09/04 11:57:24;;;;;;;;;;;25.20;99.90;;;;;;4912973;29;20389;-70
2022/09/04 11:59:52;;;;;;;;;;;26.30;99.90;;;;;;4905982;29;19919;-70
2022/09/04 12:02:18;;;;;;;;;;;27.40;99.90;;;;;;4908426;29;20014;-70
2022/09/04 12:05:01;;;;;;;;;;;28.00;99.90;;;;;;4905224;29;20003;-70
2022/09/04 12:07:31;;;;;;;;;;;27.60;98.20;;;;;;4900122;29;19919;-70
2022/09/04 12:10:00;;;;;;;;;;;27.30;99.90;;;;;;4905766;29;20022;-70
2022/09/04 12:12:44;;;;;;;;;;;26.90;99.70;;;;;;4904681;29;19958;-70
2022/09/04 12:15:16;;;;;;;;;;;26.70;99.90;;;;;;4907577;29;19918;-70
2022/09/04 12:17:56;;;;;;;;;;;26.50;99.90;;;;;;4906159;29;20198;-70
2022/09/04 12:20:28;;;;;;;;;;;26.20;99.90;;;;;;4904173;29;20005;-70
2022/09/04 12:23:01;;;;;;;;;;;25.90;99.90;;;;;;4908574;29;19926;-70
2022/09/04 12:25:45;;;;;;;;;;;25.80;99.90;;;;;;4915658;29;19930;-70
2022/09/04 12:28:32;;;;;;;;;;;25.60;99.90;;;;;;4913097;29;19974;-70
2022/09/04 12:31:04;;;;;;;;;;;26.10;99.90;;;;;;4914421;29;19933;-70
2022/09/04 12:33:41;;;;;;;;;;;26.40;99.90;;;;;;4908015;29;20155;-71
2022/09/04 12:36:16;;;;;;;;;;;26.30;99.90;;;;;;4920875;29;19915;-70
2022/09/04 12:38:45;;;;;;;;;;;26.10;99.90;;;;;;4917894;29;20029;-70
2022/09/04 12:41:11;;;;;;;;;;;26.00;99.90;;;;;;4918359;29;19915;-70
2022/09/04 12:43:47;;;;;;;;;;;26.20;99.90;;;;;;4919107;29;19978;-70
2022/09/04 12:46:13;;;;;;;;;;;26.90;99.90;;;;;;4918863;29;19915;-70
2022/09/04 12:48:57;;;;;;;;;;;27.20;99.90;;;;;;4915929;29;19969;-70
2022/09/04 12:51:27;;;;;;;;;;;27.50;99.30;;;;;;4918262;29;19923;-70
2022/09/04 12:53:58;;;;;;;;;;;27.40;97.30;;;;;;4916535;29;19918;-70
2022/09/04 12:56:42;;;;;;;;;;;27.40;97.20;;;;;;4917353;29;19942;-70
2022/09/04 12:59:22;;;;;;;;;;;27.40;97.50;;;;;;4904846;29;19919;-70
2022/09/04 13:01:55;;;;;;;;;;;27.50;99.90;;;;;;4917325;29;20021;-70
2022/09/04 13:04:41;;;;;;;;;;;27.00;96.60;;;;;;4915138;29;19927;-70
2022/09/04 13:07:13;;;;;;;;;;;27.00;97.50;;;;;;4916259;29;19919;-70
2022/09/04 13:09:47;;;;;;;;;;;27.40;99.70;;;;;;4897492;29;19989;-70
2022/09/04 13:12:16;;;;;;;;;;;27.80;96.40;;;;;;4911903;29;19919;-69
2022/09/04 13:14:50;;;;;;;;;;;27.80;93.70;;;;;;4915271;29;20445;-70
2022/09/04 13:17:34;;;;;;;;;;;27.90;95.10;;;;;;4893297;29;19919;-70
2022/09/04 13:20:09;;;;;;;;;;;28.00;94.40;;;;;;4915041;29;20378;-71
2022/09/04 13:22:41;;;;;;;;;;;27.90;95.60;;;;;;4913684;29;19919;-70
2022/09/04 13:25:14;;;;;;;;;;;27.70;94.00;;;;;;4914439;29;20003;-69
2022/09/04 13:27:52;;;;;;;;;;;27.40;94.30;;;;;;4898427;29;20397;-70
2022/09/04 13:30:23;;;;;;;;;;;27.10;96.80;;;;;;4915900;29;20017;-70
2022/09/04 13:33:03;;;;;;;;;;;26.80;97.00;;;;;;4910860;29;20157;-70
2022/09/04 13:35:30;;;;;;;;;;;26.70;99.10;;;;;;4903727;29;20418;-70
2022/09/04 13:37:55;;;;;;;;;;;26.80;95.80;;;;;;4912503;29;19957;-70
2022/09/04 13:40:34;;;;;;;;;;;26.90;98.00;;;;;;4915604;29;20390;-70
2022/09/04 13:43:19;;;;;;;;;;;27.10;96.60;;;;;;4914695;29;19931;-70
2022/09/04 13:45:47;;;;;;;;;;;27.20;95.70;;;;;;4911808;29;19962;-70
2022/09/04 13:48:17;;;;;;;;;;;27.30;95.80;;;;;;4903650;29;19923;-70
2022/09/04 13:50:55;;;;;;;;;;;27.40;96.70;;;;;;4913581;29;20013;-70
2022/09/04 13:53:29;;;;;;;;;;;27.50;96.70;;;;;;4899468;29;19919;-70
2022/09/04 13:56:18;;;;;;;;;;;27.40;95.40;;;;;;4906668;29;20292;-68
2022/09/04 13:58:50;;;;;;;;;;;27.10;95.20;;;;;;4915904;29;19919;-70
2022/09/04 14:01:22;;;;;;;;;;;26.80;94.40;;;;;;4917390;29;20419;-70
2022/09/04 14:03:47;;;;;;;;;;;26.40;95.10;;;;;;4916601;29;20706;-70
2022/09/04 14:06:15;;;;;;;;;;;26.20;98.60;;;;;;4915912;29;19973;-70
2022/09/04 14:08:42;;;;;;;;;;;26.10;98.40;;;;;;4898106;29;19934;-70
2022/09/04 14:11:20;;;;;;;;;;;26.10;98.30;;;;;;4899630;29;20450;-70
2022/09/04 14:13:54;;;;;;;;;;;26.10;97.40;;;;;;4917719;29;19962;-70
2022/09/04 14:16:22;;;;;;;;;;;25.80;98.40;;;;;;4910319;29;19915;-70
2022/09/04 14:19:00;;;;;;;;;;;25.90;99.90;;;;;;4906529;29;19926;-70
2022/09/04 14:21:44;;;;;;;;;;;25.80;99.90;;;;;;4904557;29;19925;-70
2022/09/04 14:24:40;;;;;;;;;;;25.70;99.90;;;;;;4915130;29;20449;-70
2022/09/04 14:27:25;;;;;;;;;;;25.60;98.10;;;;;;4897647;29;20311;-69
2022/09/04 14:29:51;;;;;;;;;;;25.70;99.60;;;;;;4915451;29;19926;-70
2022/09/04 14:32:22;;;;;;;;;;;25.60;98.10;;;;;;4916763;29;19918;-70
2022/09/04 14:35:07;;;;;;;;;;;25.40;99.90;;;;;;4915178;29;20218;-70
2022/09/04 14:37:39;;;;;;;;;;;25.30;98.80;;;;;;4912674;29;20272;-70
2022/09/04 14:40:11;;;;;;;;;;;25.20;96.10;;;;;;4917939;29;19914;-70
2022/09/04 14:42:45;;;;;;;;;;;25.00;99.00;;;;;;4911397;29;20519;-69
2022/09/04 14:45:28;;;;;;;;;;;24.90;99.90;;;;;;4906063;29;19926;-70
2022/09/04 14:48:02;;;;;;;;;;;25.00;99.90;;;;;;4894621;29;20086;-70
2022/09/04 14:50:29;;;;;;;;;;;24.90;99.90;;;;;;4909209;29;20017;-70
2022/09/04 14:52:58;;;;;;;;;;;24.90;99.90;;;;;;4916170;29;19940;-69
2022/09/04 14:55:25;;;;;;;;;;;24.90;99.90;;;;;;4913246;29;20068;-70
2022/09/04 14:57:54;;;;;;;;;;;24.80;99.90;;;;;;4918986;29;20291;-70
2022/09/04 15:00:20;;;;;;;;;;;24.80;99.90;;;;;;4918746;29;20402;-70
2022/09/04 15:02:49;;;;;;;;;;;24.80;99.90;;;;;;4919234;29;19986;-70
2022/09/04 15:05:19;;;;;;;;;;;24.90;99.90;;;;;;4910534;29;19923;-70
2022/09/04 15:07:48;;;;;;;;;;;24.80;98.10;;;;;;4905999;29;19919;-70
2022/09/04 15:10:23;;;;;;;;;;;24.90;98.50;;;;;;4911742;29;19919;-70